Ride Results

Shoalhaven (02-11-2008)
Ride distance: 100.0 km Elevator

Outcomes - Shoalhaven (02-11-2008)
Division No. of Entries Retired / DNE Completed Withdrawn Ineligible V/O Percentage Completed
HW 21 13 3 2 - 3 76.19%
MW 24 11 5 3 - 5 66.67%
LW 12 5 2 - - 5 58.33%
JN 4 2 2 - - - 100.00%
Totals 61 31 12 5 - 13 70.49%
Results - Shoalhaven (02-11-2008)
No. Rider Horse Place Time Leg Speeds Total
Km/Hr
H/R bpm
Heavyweight
104 Peter Norman Bellarine Bozo 1 (BC) 6:44:00 15.3, 14.5, 14.2 14.85 32, 41, 48, 52 (Avg:47)
105 Marty Moran Glenduearte Desert Storm 2 7:03:00 14.6, 13.0, 14.9 14.18 80, 46, 51, 54 (Avg:50)
114 Allan Caslick A'Landell Intent 3 8:38:00 11.4, 10.9, 13.0 11.58 42, 47, 51, 45 (Avg:47)
112 Roy Counsell Tristram The Edge Retired/DNE L2 5:20:00 15.4, 14.2 15.00 37, 43, 44 (Avg:43)
30 Con Katrivessis Marcon Ios Conquero Retired/DNE L2 6:48:00 14.1, 9.1 11.76 50, 52, 44 (Avg:48)
74 Greg Moore Parkview Armageddon Retired/DNE L2 6:59:00 12.6, 9.9 11.46 60, 51, 56 (Avg:53)
86 Keith Nagle Elrebel Afternoon Delight Retired/DNE L2 7:48:00 12.1, 8.1 10.26 37, 41, 55 (Avg:48)
72 Len Derkacz Torryburn Rahal Retired/DNE L2 7:52:00 10.9, 9.0 10.17 36, 42, 48 (Avg:45)
85 Belinda Hopley Girilambone Sorcerer Retired/DNE L2 8:08:00 11.9, 7.6 9.84 36, 41, 48 (Avg:44)
63 David Porter Sangria Meccalister Retired/DNE L2 8:54:00 10.4, 7.3 8.99 34, 39, 41 (Avg:40)
68 Sue Warren Warren Park O.B. One Retired/DNE L2 8:54:00 10.2, 7.4 8.99 35, 42, 43 (Avg:42)
67 Cris Magnabosco Magna Viking Retired/DNE L2 9:18:00 10.8, 6.3 8.60 45, 48, 52 (Avg:50)
110 Stuart Hitchcock Ralvon Courier Retired/DNE L2 9:23:00 10.0, 6.7 8.53 48, 52, 56 (Avg:54)
76 Ray Spence Dahman Nile Star Retired/DNE L2 10:16:00 11.4, 5.0 7.79 33, 43, 55 (Avg:49)
121 Murray Fox Yerorlonga Spinna Retired/DNE L2 10:17:00 11.6, 5.0 7.78 42, 49, 49 (Avg:49)
B Alan Marshall Moby Dick Retired/DNE L2 10:18:00 8.8, 6.4 7.77 45, 49, 50 (Avg:49)
65 Gary Pevy Jackpot Lame L2 0:00:00 10.4, 8.8 - 32, 49, 56 (Avg:52)
108 Con Bouzianis Inshallah Rhapsody Widthdrawn L1 0:00:00 - - 44, 49 (Avg:49)
91 Mark Cameron Danjera Naavana Heart Rate L1 0:00:00 10.3 - 49, 56 (Avg:56)
77 John Dawson Annabella Jenaskali Widthdrawn L1 0:00:00 - - 35, 43 (Avg:43)
C Marty Gregson Burren-dah Gladiator Heart Rate L1 0:00:00 10.7 - 44, 79 (Avg:79)
Middleweight
107 Louise Counsell Kintamani Bartholemew 1 6:58:00 15.4, 13.4, 13.3 14.35 28, 35, 45, 43 (Avg:41)
94 Bruce Carter Dasharm Zayesha 2 (BC) 8:16:00 14.6, 11.1, 9.3 12.10 35, 41, 51, 46 (Avg:46)
118 Ruth Van der Wegen Espirit Sherwood 3 8:33:00 11.4, 10.9, 13.7 11.70 37, 44, 49, 43 (Avg:45)
75 Marita Rifai Tianna 4 8:35:00 15.4, 8.4, 11.2 11.65 37, 45, 52, 49 (Avg:48)
78 Lindsay Hine Harmere Kalila 5 8:36:00 11.2, 11.4, 13.0 11.63 38, 45, 50, 49 (Avg:48)
102 Jeff Adams Takoi Jacky Chan Retired/DNE L2 7:12:00 15.9, 7.3 11.11 36, 44, 49 (Avg:46)
122 Clare Feary Double TT It ' n' Abit Retired/DNE L2 7:24:00 15.7, 7.0 10.81 38, 47, 58 (Avg:52)
123 Darien Feary Paro Lafir Retired/DNE L2 7:24:00 14.1, 7.7 10.81 37, 43, 50 (Avg:46)
73 Brian Klatt Salam Zahbeel Retired/DNE L2 7:52:00 10.9, 9.0 10.17 47, 46, 52 (Avg:49)
95 Anthony Geyteman Valinor Park Layla Retired/DNE L2 8:04:00 10.8, 8.6 9.92 37, 55, 48 (Avg:51)
93 Paul Keyes Kathmar Park Ambush Retired/DNE L2 8:04:00 10.8, 8.6 9.92 38, 41, 47 (Avg:44)
96 Tony Norman Hazeldean Haabib Retired/DNE L2 8:04:00 10.8, 8.6 9.92 43, 50, 52 (Avg:51)
83 Heidi Wade Yinbilliko Jackson Retired/DNE L2 8:07:00 11.1, 8.2 9.86 44, 47, 57 (Avg:52)
70 Tracy Haack Warren Park Finesse Retired/DNE L2 8:54:00 10.2, 7.4 8.99 36, 46, 50 (Avg:48)
113 Lina Weigel Kintamani Jazz Man Retired/DNE L2 9:17:00 9.9, 7.0 8.62 27, 47, 41 (Avg:44)
129 Kristie Wright Blake's Heaven Venus Retired/DNE L2 9:22:00 8.8, 8.0 8.54 52, 52, 55 (Avg:53)
71 Carol Major Major Luke Lame L3 0:00:00 15.4, 12.6, 11.6 - 42, 43, 50, 46 (Avg:46)
5 Jennifer Gilbertson Webbs Creek Walkabout Widthdrawn L2 0:00:00 - - 36, 45, 45 (Avg:45)
84 Eta Rogoyska Charadia Kermit Heart Rate L2 0:00:00 9.7, 7.0 - 38, 55, 64 (Avg:59)
2 Julie Scruse Omani Hilite Lame L2 0:00:00 10.8, 10.2 - 45, 45, 50 (Avg:47)
109 Tom Bouzianis Conderosa Zoltan Widthdrawn L1 0:00:00 - - 38, 49 (Avg:49)
79 Sophie Cunico Charleville Lady Heart Rate L1 0:00:00 5.3 - 46, 56 (Avg:56)
125 Jody O'Leary-Gowen Shahira Sha Blue Widthdrawn L1 0:00:00 - - 56, 54 (Avg:54)
98 David Player Ryton Pipes of Peace Lame L1 0:00:00 10.0 - 32, 48 (Avg:48)
Lightweight
97 Denise Fox Howard Park Shataan 1 (BC) 8:16:00 14.5, 11.1, 9.3 12.10 40, 43, 54, 49 (Avg:48)
99 Irene Adams Bendeela Park Amera Naomi 2 8:57:00 15.9, 7.3, 11.4 11.17 31, 39, 49, 47 (Avg:45)
92 Annette Gifford Porcelyn Bey Retired/DNE L2 7:18:00 11.2, 10.4 10.96 38, 50, 55 (Avg:52)
90 Mick Rooney Tariqa Park Simaaqa Retired/DNE L2 7:46:00 9.3, 12.3 10.30 32, 42, 52 (Avg:47)
66 Debbie Pevy Conderosa Silver Shah Retired/DNE L2 7:52:00 10.4, 9.6 10.17 35, 43, 49 (Avg:46)
87 Sharyn Petith Joda Allure Retired/DNE L2 8:07:00 11.2, 8.1 9.86 49, 52, 60 (Avg:56)
127 Fia Hasko-Stewart Blake's Heaven Caruso Retired/DNE L2 9:22:00 9.7, 7.0 8.54 38, 40, 46 (Avg:43)
120 Jodi Dewick Wickwood Ibn Hosea Lame L2 0:00:00 10.8, 25.3 - 41, 45, 43 (Avg:44)
132 Shelly Ison Coolahlee Park Sarah Lame L2 0:00:00 15.3, 12.8 - 37, 44, 47 (Avg:45)
103 Samantha West Ehsun Sahara Lame L2 0:00:00 12.1, 8.1 - 40, 43, 60 (Avg:51)
80 Allix Jones Yardin Lame L1 0:00:00 11.3 - 36, 37 (Avg:37)
64 Colette La France Bint Boont Bunt Metabolics moderate L1 0:00:00 12.0 - 38, 46 (Avg:46)
Junior
106 Sophie Counsell Tristram Hale 1 (BC) 6:58:00 15.4, 13.4, 13.3 14.35 33, 41, 51, 52 (Avg:48)
128 Talea Hasko-Stewart Blake's Heaven Summer Reign 2 8:36:00 12.8, 9.2, 13.4 11.63 34, 43, 47, 50 (Avg:46)
82 Maddison Wade Yinbilliko Ra Fleur Retired/DNE L2 8:07:00 11.1, 8.2 9.86 36, 40, 52 (Avg:46)
119 Kendra Appleton Shahira Sohaal Retired/DNE L2 9:16:00 9.9, 7.0 8.63 38, 54, 57 (Avg:55)